Time;durP1;ratioP1;P1;durP2;ratioP2;P2;SDS_P1;SDS_P2;PMS_P1;PMS_P2;Temp;Humidity;BMP_temperature;BMP_pressure;BME280_temperature;BME280_humidity;BME280_pressure;Samples;Min_cycle;Max_cycle;Signal;HPM_P1;HPM_P2
2020/01/03 00:00:37;;;;;;;37.15;18.85;;;;;;;-4.61;75.14648;96151.28;;;;
2020/01/03 00:06:49;;;;;;;37.15;18.85;;;;;;;-4.61;75.14648;96151.28;;;;
2020/01/03 00:07:49;;;;;;;37.15;18.85;;;;;;;-4.61;75.14648;96151.28;;;;
2020/01/03 00:08:50;;;;;;;37.15;18.85;;;;;;;-4.61;75.14648;96151.28;;;;
2020/01/03 00:09:50;;;;;;;35.3;18.05;;;;;;;-4.67;75.25781;96152.66;;;;
2020/01/03 00:10:51;;;;;;;35.3;18.05;;;;;;;-4.67;75.25781;96152.66;;;;
2020/01/03 00:11:51;;;;;;;35.3;18.05;;;;;;;-4.67;75.25781;96152.66;;;;
2020/01/03 00:12:52;;;;;;;35.3;18.05;;;;;;;-4.67;75.25781;96152.66;;;;
2020/01/03 00:13:52;;;;;;;35.3;18.05;;;;;;;-4.67;75.25781;96152.66;;;;
2020/01/03 00:14:53;;;;;;;35.3;18.05;;;;;;;-4.67;75.25781;96152.66;;;;
2020/01/03 00:15:53;;;;;;;35.3;18.05;;;;;;;-4.67;75.25781;96152.66;;;;
2020/01/03 00:16:53;;;;;;;35.3;18.05;;;;;;;-4.67;75.25781;96152.66;;;;
2020/01/03 00:17:54;;;;;;;35.3;18.05;;;;;;;-4.67;75.25781;96152.66;;;;
2020/01/03 00:18:54;;;;;;;35.3;18.05;;;;;;;-4.67;75.25781;96152.66;;;;
2020/01/03 00:19:55;;;;;;;33.55;18.2;;;;;;;-4.76;75.14844;96145.9;;;;
2020/01/03 00:20:55;;;;;;;33.55;18.2;;;;;;;-4.76;75.14844;96145.9;;;;
2020/01/03 00:21:56;;;;;;;33.55;18.2;;;;;;;-4.76;75.14844;96145.9;;;;
2020/01/03 00:22:56;;;;;;;33.55;18.2;;;;;;;-4.76;75.14844;96145.9;;;;
2020/01/03 00:23:57;;;;;;;33.55;18.2;;;;;;;-4.76;75.14844;96145.9;;;;
2020/01/03 00:24:57;;;;;;;33.55;18.2;;;;;;;-4.76;75.14844;96145.9;;;;
2020/01/03 00:25:58;;;;;;;33.55;18.2;;;;;;;-4.76;75.14844;96145.9;;;;
2020/01/03 00:26:58;;;;;;;33.55;18.2;;;;;;;-4.76;75.14844;96145.9;;;;
2020/01/03 00:27:58;;;;;;;33.55;18.2;;;;;;;-4.76;75.14844;96145.9;;;;
2020/01/03 00:28:59;;;;;;;33.55;18.2;;;;;;;-4.76;75.14844;96145.9;;;;
2020/01/03 00:29:59;;;;;;;33.55;18.2;;;;;;;-4.76;75.14844;96145.9;;;;
2020/01/03 00:31:00;;;;;;;34.8;17.85;;;;;;;-4.74;75.06934;96149.31;;;;
2020/01/03 00:32:00;;;;;;;34.8;17.85;;;;;;;-4.74;75.06934;96149.31;;;;
2020/01/03 00:33:01;;;;;;;34.8;17.85;;;;;;;-4.74;75.06934;96149.31;;;;
2020/01/03 00:34:01;;;;;;;34.8;17.85;;;;;;;-4.74;75.06934;96149.31;;;;
2020/01/03 00:35:02;;;;;;;34.8;17.85;;;;;;;-4.74;75.06934;96149.31;;;;
2020/01/03 00:36:02;;;;;;;34.8;17.85;;;;;;;-4.74;75.06934;96149.31;;;;
2020/01/03 00:37:03;;;;;;;34.8;17.85;;;;;;;-4.74;75.06934;96149.31;;;;
2020/01/03 00:38:27;;;;;;;34.8;17.85;;;;;;;-4.74;75.06934;96149.31;;;;
2020/01/03 00:39:37;;;;;;;34.8;17.85;;;;;;;-4.74;75.06934;96149.31;;;;
2020/01/03 00:40:38;;;;;;;34.8;17.85;;;;;;;-4.74;75.06934;96149.31;;;;
2020/01/03 00:41:38;;;;;;;33.34999;17.25;;;;;;;-4.79;74.83398;96137.42;;;;
2020/01/03 00:42:39;;;;;;;33.34999;17.25;;;;;;;-4.79;74.83398;96137.42;;;;
2020/01/03 00:43:39;;;;;;;33.34999;17.25;;;;;;;-4.79;74.83398;96137.42;;;;
2020/01/03 00:44:42;;;;;;;33.34999;17.25;;;;;;;-4.79;74.83398;96137.42;;;;
2020/01/03 00:45:42;;;;;;;33.34999;17.25;;;;;;;-4.79;74.83398;96137.42;;;;
2020/01/03 00:46:44;;;;;;;33.34999;17.25;;;;;;;-4.79;74.83398;96137.42;;;;
2020/01/03 00:47:44;;;;;;;33.34999;17.25;;;;;;;-4.79;74.83398;96137.42;;;;
2020/01/03 00:48:45;;;;;;;33.34999;17.25;;;;;;;-4.79;74.83398;96137.42;;;;
2020/01/03 00:49:45;;;;;;;33.34999;17.25;;;;;;;-4.79;74.83398;96137.42;;;;
2020/01/03 00:50:46;;;;;;;33.34999;17.25;;;;;;;-4.79;74.83398;96137.42;;;;
2020/01/03 00:52:23;;;;;;;31.4;16.4;;;;;;;-4.79;74.875;96142.69;;;;
2020/01/03 00:53:25;;;;;;;31.4;16.4;;;;;;;-4.79;74.875;96142.69;;;;
2020/01/03 00:54:25;;;;;;;31.4;16.4;;;;;;;-4.79;74.875;96142.69;;;;
2020/01/03 00:55:26;;;;;;;31.4;16.4;;;;;;;-4.79;74.875;96142.69;;;;
2020/01/03 00:56:26;;;;;;;31.4;16.4;;;;;;;-4.79;74.875;96142.69;;;;
2020/01/03 00:57:26;;;;;;;31.4;16.4;;;;;;;-4.79;74.875;96142.69;;;;
2020/01/03 00:58:27;;;;;;;31.4;16.4;;;;;;;-4.79;74.875;96142.69;;;;
2020/01/03 00:59:27;;;;;;;31.4;16.4;;;;;;;-4.79;74.875;96142.69;;;;
2020/01/03 01:00:28;;;;;;;31.4;16.4;;;;;;;-4.79;74.875;96142.69;;;;
2020/01/03 01:01:29;;;;;;;31.4;16.4;;;;;;;-4.79;74.875;96142.69;;;;
2020/01/03 01:02:29;;;;;;;29.49999;15.1;;;;;;;-4.87;74.75684;96131.91;;;;
2020/01/03 01:03:30;;;;;;;29.49999;15.1;;;;;;;-4.87;74.75684;96131.91;;;;
2020/01/03 01:04:30;;;;;;;29.49999;15.1;;;;;;;-4.87;74.75684;96131.91;;;;
2020/01/03 01:05:31;;;;;;;29.49999;15.1;;;;;;;-4.87;74.75684;96131.91;;;;
2020/01/03 01:06:31;;;;;;;29.49999;15.1;;;;;;;-4.87;74.75684;96131.91;;;;
2020/01/03 01:07:32;;;;;;;29.49999;15.1;;;;;;;-4.87;74.75684;96131.91;;;;
2020/01/03 01:08:32;;;;;;;29.49999;15.1;;;;;;;-4.87;74.75684;96131.91;;;;
2020/01/03 01:09:32;;;;;;;29.49999;15.1;;;;;;;-4.87;74.75684;96131.91;;;;
2020/01/03 01:10:35;;;;;;;29.49999;15.1;;;;;;;-4.87;74.75684;96131.91;;;;
2020/01/03 01:11:35;;;;;;;29.49999;15.1;;;;;;;-4.87;74.75684;96131.91;;;;
2020/01/03 01:12:35;;;;;;;29.49999;15.1;;;;;;;-4.87;74.75684;96131.91;;;;
2020/01/03 01:13:36;;;;;;;30.65;15.5;;;;;;;-4.9;74.71191;96155.81;;;;
2020/01/03 01:14:36;;;;;;;30.65;15.5;;;;;;;-4.9;74.71191;96155.81;;;;
2020/01/03 01:15:37;;;;;;;30.65;15.5;;;;;;;-4.9;74.71191;96155.81;;;;
2020/01/03 01:16:37;;;;;;;30.65;15.5;;;;;;;-4.9;74.71191;96155.81;;;;
2020/01/03 01:17:38;;;;;;;30.65;15.5;;;;;;;-4.9;74.71191;96155.81;;;;
2020/01/03 01:18:38;;;;;;;30.65;15.5;;;;;;;-4.9;74.71191;96155.81;;;;
2020/01/03 01:19:39;;;;;;;30.65;15.5;;;;;;;-4.9;74.71191;96155.81;;;;
2020/01/03 01:20:39;;;;;;;30.65;15.5;;;;;;;-4.9;74.71191;96155.81;;;;
2020/01/03 01:21:40;;;;;;;30.65;15.5;;;;;;;-4.9;74.71191;96155.81;;;;
2020/01/03 01:22:40;;;;;;;30.65;15.5;;;;;;;-4.9;74.71191;96155.81;;;;
2020/01/03 01:23:41;;;;;;;31.05;15.2;;;;;;;-5.01;74.59766;96136.97;;;;
2020/01/03 01:24:41;;;;;;;31.05;15.2;;;;;;;-5.01;74.59766;96136.97;;;;
2020/01/03 01:25:42;;;;;;;31.05;15.2;;;;;;;-5.01;74.59766;96136.97;;;;
2020/01/03 01:26:42;;;;;;;31.05;15.2;;;;;;;-5.01;74.59766;96136.97;;;;
2020/01/03 01:27:43;;;;;;;31.05;15.2;;;;;;;-5.01;74.59766;96136.97;;;;
2020/01/03 01:28:43;;;;;;;31.05;15.2;;;;;;;-5.01;74.59766;96136.97;;;;
2020/01/03 01:29:44;;;;;;;31.05;15.2;;;;;;;-5.01;74.59766;96136.97;;;;
2020/01/03 01:31:25;;;;;;;31.05;15.2;;;;;;;-5.01;74.59766;96136.97;;;;
2020/01/03 01:32:32;;;;;;;31.05;15.2;;;;;;;-5.01;74.59766;96136.97;;;;
2020/01/03 01:33:33;;;;;;;31.05;15.2;;;;;;;-5.01;74.59766;96136.97;;;;
2020/01/03 01:34:33;;;;;;;25.1;13;;;;;;;-5;74.73535;96130.73;;;;
2020/01/03 01:35:34;;;;;;;25.1;13;;;;;;;-5;74.73535;96130.73;;;;
2020/01/03 01:36:34;;;;;;;25.1;13;;;;;;;-5;74.73535;96130.73;;;;
2020/01/03 01:37:35;;;;;;;25.1;13;;;;;;;-5;74.73535;96130.73;;;;
2020/01/03 01:38:35;;;;;;;25.1;13;;;;;;;-5;74.73535;96130.73;;;;
2020/01/03 01:39:36;;;;;;;25.1;13;;;;;;;-5;74.73535;96130.73;;;;
2020/01/03 01:40:36;;;;;;;25.1;13;;;;;;;-5;74.73535;96130.73;;;;
2020/01/03 01:41:37;;;;;;;25.1;13;;;;;;;-5;74.73535;96130.73;;;;
2020/01/03 01:42:37;;;;;;;25.1;13;;;;;;;-5;74.73535;96130.73;;;;
2020/01/03 01:43:38;;;;;;;25.1;13;;;;;;;-5;74.73535;96130.73;;;;
2020/01/03 01:44:38;;;;;;;23.25;11.75;;;;;;;-4.99;74.58203;96128.05;;;;
2020/01/03 01:45:38;;;;;;;23.25;11.75;;;;;;;-4.99;74.58203;96128.05;;;;
2020/01/03 01:46:39;;;;;;;23.25;11.75;;;;;;;-4.99;74.58203;96128.05;;;;
2020/01/03 01:47:39;;;;;;;23.25;11.75;;;;;;;-4.99;74.58203;96128.05;;;;
2020/01/03 01:48:40;;;;;;;23.25;11.75;;;;;;;-4.99;74.58203;96128.05;;;;
2020/01/03 01:49:40;;;;;;;23.25;11.75;;;;;;;-4.99;74.58203;96128.05;;;;
2020/01/03 01:50:41;;;;;;;23.25;11.75;;;;;;;-4.99;74.58203;96128.05;;;;
2020/01/03 01:51:41;;;;;;;23.25;11.75;;;;;;;-4.99;74.58203;96128.05;;;;
2020/01/03 01:52:42;;;;;;;23.25;11.75;;;;;;;-4.99;74.58203;96128.05;;;;
2020/01/03 01:53:42;;;;;;;23.25;11.75;;;;;;;-4.99;74.58203;96128.05;;;;
2020/01/03 01:54:43;;;;;;;23.25;11.75;;;;;;;-4.99;74.58203;96128.05;;;;
2020/01/03 01:55:43;;;;;;;23.75;11.7;;;;;;;-4.97;74.46191;96111.19;;;;
2020/01/03 01:56:44;;;;;;;23.75;11.7;;;;;;;-4.97;74.46191;96111.19;;;;
2020/01/03 01:57:44;;;;;;;23.75;11.7;;;;;;;-4.97;74.46191;96111.19;;;;
2020/01/03 01:58:45;;;;;;;23.75;11.7;;;;;;;-4.97;74.46191;96111.19;;;;
2020/01/03 01:59:45;;;;;;;23.75;11.7;;;;;;;-4.97;74.46191;96111.19;;;;
2020/01/03 02:00:46;;;;;;;23.75;11.7;;;;;;;-4.97;74.46191;96111.19;;;;
2020/01/03 02:01:46;;;;;;;23.75;11.7;;;;;;;-4.97;74.46191;96111.19;;;;
2020/01/03 02:02:47;;;;;;;23.75;11.7;;;;;;;-4.97;74.46191;96111.19;;;;
2020/01/03 02:03:48;;;;;;;23.75;11.7;;;;;;;-4.97;74.46191;96111.19;;;;
2020/01/03 02:04:48;;;;;;;23.75;11.7;;;;;;;-4.97;74.46191;96111.19;;;;
2020/01/03 02:05:49;;;;;;;21.3;10.95;;;;;;;-5.01;74.35059;96094.42;;;;
2020/01/03 02:06:49;;;;;;;21.3;10.95;;;;;;;-5.01;74.35059;96094.42;;;;
2020/01/03 02:07:49;;;;;;;21.3;10.95;;;;;;;-5.01;74.35059;96094.42;;;;
2020/01/03 02:08:50;;;;;;;21.3;10.95;;;;;;;-5.01;74.35059;96094.42;;;;
2020/01/03 02:09:50;;;;;;;21.3;10.95;;;;;;;-5.01;74.35059;96094.42;;;;
2020/01/03 02:10:51;;;;;;;21.3;10.95;;;;;;;-5.01;74.35059;96094.42;;;;
2020/01/03 02:11:51;;;;;;;21.3;10.95;;;;;;;-5.01;74.35059;96094.42;;;;
2020/01/03 02:12:52;;;;;;;21.3;10.95;;;;;;;-5.01;74.35059;96094.42;;;;
2020/01/03 02:13:53;;;;;;;21.3;10.95;;;;;;;-5.01;74.35059;96094.42;;;;
2020/01/03 02:14:53;;;;;;;21.3;10.95;;;;;;;-5.01;74.35059;96094.42;;;;
2020/01/03 02:15:54;;;;;;;21.3;10.95;;;;;;;-5.01;74.35059;96094.42;;;;
2020/01/03 02:16:54;;;;;;;20.6;10.25;;;;;;;-4.97;74.43945;96090.17;;;;
2020/01/03 02:17:55;;;;;;;20.6;10.25;;;;;;;-4.97;74.43945;96090.17;;;;
2020/01/03 02:18:55;;;;;;;20.6;10.25;;;;;;;-4.97;74.43945;96090.17;;;;
2020/01/03 02:19:55;;;;;;;20.6;10.25;;;;;;;-4.97;74.43945;96090.17;;;;
2020/01/03 02:20:56;;;;;;;20.6;10.25;;;;;;;-4.97;74.43945;96090.17;;;;
2020/01/03 02:21:56;;;;;;;20.6;10.25;;;;;;;-4.97;74.43945;96090.17;;;;
2020/01/03 02:22:57;;;;;;;20.6;10.25;;;;;;;-4.97;74.43945;96090.17;;;;
2020/01/03 02:23:57;;;;;;;20.6;10.25;;;;;;;-4.97;74.43945;96090.17;;;;
2020/01/03 02:24:58;;;;;;;20.6;10.25;;;;;;;-4.97;74.43945;96090.17;;;;
2020/01/03 02:25:58;;;;;;;20.6;10.25;;;;;;;-4.97;74.43945;96090.17;;;;
2020/01/03 02:26:59;;;;;;;20.6;10.25;;;;;;;-4.97;74.43945;96090.17;;;;
2020/01/03 02:27:59;;;;;;;18.45;9.6;;;;;;;-4.92;74.45996;96091.9;;;;
2020/01/03 02:28:59;;;;;;;18.45;9.6;;;;;;;-4.92;74.45996;96091.9;;;;
2020/01/03 02:30:00;;;;;;;18.45;9.6;;;;;;;-4.92;74.45996;96091.9;;;;
2020/01/03 02:31:00;;;;;;;18.45;9.6;;;;;;;-4.92;74.45996;96091.9;;;;
2020/01/03 02:32:01;;;;;;;18.45;9.6;;;;;;;-4.92;74.45996;96091.9;;;;
2020/01/03 02:33:01;;;;;;;18.45;9.6;;;;;;;-4.92;74.45996;96091.9;;;;
2020/01/03 02:34:02;;;;;;;18.45;9.6;;;;;;;-4.92;74.45996;96091.9;;;;
2020/01/03 02:35:02;;;;;;;18.45;9.6;;;;;;;-4.92;74.45996;96091.9;;;;
2020/01/03 02:36:03;;;;;;;18.45;9.6;;;;;;;-4.92;74.45996;96091.9;;;;
2020/01/03 02:37:03;;;;;;;18.45;9.6;;;;;;;-4.92;74.45996;96091.9;;;;
2020/01/03 02:38:04;;;;;;;15.75;8.2;;;;;;;-4.67;74.41016;96093.86;;;;
2020/01/03 02:39:04;;;;;;;15.75;8.2;;;;;;;-4.67;74.41016;96093.86;;;;
2020/01/03 02:40:05;;;;;;;15.75;8.2;;;;;;;-4.67;74.41016;96093.86;;;;
2020/01/03 02:41:06;;;;;;;15.75;8.2;;;;;;;-4.67;74.41016;96093.86;;;;
2020/01/03 02:42:27;;;;;;;15.75;8.2;;;;;;;-4.67;74.41016;96093.86;;;;
2020/01/03 02:43:27;;;;;;;15.75;8.2;;;;;;;-4.67;74.41016;96093.86;;;;
2020/01/03 02:44:27;;;;;;;15.75;8.2;;;;;;;-4.67;74.41016;96093.86;;;;
2020/01/03 02:45:28;;;;;;;15.75;8.2;;;;;;;-4.67;74.41016;96093.86;;;;
2020/01/03 02:46:28;;;;;;;15.75;8.2;;;;;;;-4.67;74.41016;96093.86;;;;
2020/01/03 02:47:29;;;;;;;15.75;8.2;;;;;;;-4.67;74.41016;96093.86;;;;
2020/01/03 02:48:34;;;;;;;14.95;8.35;;;;;;;-4.42;74.3418;96092.17;;;;
2020/01/03 02:49:36;;;;;;;14.95;8.35;;;;;;;-4.42;74.3418;96092.17;;;;
2020/01/03 02:50:46;;;;;;;14.95;8.35;;;;;;;-4.42;74.3418;96092.17;;;;
2020/01/03 02:51:55;;;;;;;14.95;8.35;;;;;;;-4.42;74.3418;96092.17;;;;
2020/01/03 02:53:58;;;;;;;14.95;8.35;;;;;;;-4.42;74.3418;96092.17;;;;
2020/01/03 02:55:02;;;;;;;14.95;8.35;;;;;;;-4.42;74.3418;96092.17;;;;
2020/01/03 02:56:36;;;;;;;14.95;8.35;;;;;;;-4.42;74.3418;96092.17;;;;
2020/01/03 02:57:38;;;;;;;14.95;8.35;;;;;;;-4.42;74.3418;96092.17;;;;
2020/01/03 02:58:44;;;;;;;14.95;8.35;;;;;;;-4.42;74.3418;96092.17;;;;
2020/01/03 02:59:57;;;;;;;14.8;8;;;;;;;-4.01;74.33203;96082.56;;;;
2020/01/03 03:06:11;;;;;;;14.8;8;;;;;;;-4.01;74.33203;96082.56;;;;
2020/01/03 03:07:12;;;;;;;14.8;8;;;;;;;-4.01;74.33203;96082.56;;;;
2020/01/03 03:08:12;;;;;;;14.8;8;;;;;;;-4.01;74.33203;96082.56;;;;
2020/01/03 03:09:12;;;;;;;14.8;8;;;;;;;-4.01;74.33203;96082.56;;;;
2020/01/03 03:10:17;;;;;;;13.45;7.45;;;;;;;-3.61;74.29785;96083.58;;;;
2020/01/03 03:11:17;;;;;;;13.45;7.45;;;;;;;-3.61;74.29785;96083.58;;;;
2020/01/03 03:12:18;;;;;;;13.45;7.45;;;;;;;-3.61;74.29785;96083.58;;;;
2020/01/03 03:13:18;;;;;;;13.45;7.45;;;;;;;-3.61;74.29785;96083.58;;;;
2020/01/03 03:14:19;;;;;;;13.45;7.45;;;;;;;-3.61;74.29785;96083.58;;;;
2020/01/03 03:15:19;;;;;;;13.45;7.45;;;;;;;-3.61;74.29785;96083.58;;;;
2020/01/03 03:16:20;;;;;;;13.45;7.45;;;;;;;-3.61;74.29785;96083.58;;;;
2020/01/03 03:17:20;;;;;;;13.45;7.45;;;;;;;-3.61;74.29785;96083.58;;;;
2020/01/03 03:18:20;;;;;;;13.45;7.45;;;;;;;-3.61;74.29785;96083.58;;;;
2020/01/03 03:19:21;;;;;;;13.45;7.45;;;;;;;-3.61;74.29785;96083.58;;;;
2020/01/03 03:20:21;;;;;;;16.6;8.25;;;;;;;-3.12;74.16699;96089.43;;;;
2020/01/03 03:21:22;;;;;;;16.6;8.25;;;;;;;-3.12;74.16699;96089.43;;;;
2020/01/03 03:22:22;;;;;;;16.6;8.25;;;;;;;-3.12;74.16699;96089.43;;;;
2020/01/03 03:23:23;;;;;;;16.6;8.25;;;;;;;-3.12;74.16699;96089.43;;;;
2020/01/03 03:24:23;;;;;;;16.6;8.25;;;;;;;-3.12;74.16699;96089.43;;;;
2020/01/03 03:25:24;;;;;;;16.6;8.25;;;;;;;-3.12;74.16699;96089.43;;;;
2020/01/03 03:26:24;;;;;;;16.6;8.25;;;;;;;-3.12;74.16699;96089.43;;;;
2020/01/03 03:27:25;;;;;;;16.6;8.25;;;;;;;-3.12;74.16699;96089.43;;;;
2020/01/03 03:28:25;;;;;;;16.6;8.25;;;;;;;-3.12;74.16699;96089.43;;;;
2020/01/03 03:29:26;;;;;;;16.6;8.25;;;;;;;-3.12;74.16699;96089.43;;;;
2020/01/03 03:30:26;;;;;;;16.6;8.25;;;;;;;-3.12;74.16699;96089.43;;;;
2020/01/03 03:31:26;;;;;;;13.85;7.55;;;;;;;-2.75;74.31348;96072.44;;;;
2020/01/03 03:32:27;;;;;;;13.85;7.55;;;;;;;-2.75;74.31348;96072.44;;;;
2020/01/03 03:33:27;;;;;;;13.85;7.55;;;;;;;-2.75;74.31348;96072.44;;;;
2020/01/03 03:34:28;;;;;;;13.85;7.55;;;;;;;-2.75;74.31348;96072.44;;;;
2020/01/03 03:35:28;;;;;;;13.85;7.55;;;;;;;-2.75;74.31348;96072.44;;;;
2020/01/03 03:36:29;;;;;;;13.85;7.55;;;;;;;-2.75;74.31348;96072.44;;;;
2020/01/03 03:37:29;;;;;;;13.85;7.55;;;;;;;-2.75;74.31348;96072.44;;;;
2020/01/03 03:38:30;;;;;;;13.85;7.55;;;;;;;-2.75;74.31348;96072.44;;;;
2020/01/03 03:39:30;;;;;;;13.85;7.55;;;;;;;-2.75;74.31348;96072.44;;;;
2020/01/03 03:40:30;;;;;;;13.85;7.55;;;;;;;-2.75;74.31348;96072.44;;;;
2020/01/03 03:41:31;;;;;;;11.8;7.05;;;;;;;-2.32;74.50293;96053.59;;;;
2020/01/03 03:42:31;;;;;;;11.8;7.05;;;;;;;-2.32;74.50293;96053.59;;;;
2020/01/03 03:43:32;;;;;;;11.8;7.05;;;;;;;-2.32;74.50293;96053.59;;;;
2020/01/03 03:44:33;;;;;;;11.8;7.05;;;;;;;-2.32;74.50293;96053.59;;;;
2020/01/03 03:45:34;;;;;;;11.8;7.05;;;;;;;-2.32;74.50293;96053.59;;;;
2020/01/03 03:46:50;;;;;;;11.8;7.05;;;;;;;-2.32;74.50293;96053.59;;;;
2020/01/03 03:48:25;;;;;;;11.8;7.05;;;;;;;-2.32;74.50293;96053.59;;;;
2020/01/03 03:49:36;;;;;;;11.8;7.05;;;;;;;-2.32;74.50293;96053.59;;;;
2020/01/03 03:50:55;;;;;;;11.8;7.05;;;;;;;-2.32;74.50293;96053.59;;;;
2020/01/03 03:52:05;;;;;;;11.8;7.05;;;;;;;-2.32;74.50293;96053.59;;;;
2020/01/03 03:53:09;;;;;;;11.8;7.05;;;;;;;-2.32;74.50293;96053.59;;;;
2020/01/03 03:54:31;;;;;;;11.8;7.05;;;;;;;-2.32;74.50293;96053.59;;;;
2020/01/03 03:55:42;;;;;;;11.8;7.05;;;;;;;-2.32;74.50293;96053.59;;;;
2020/01/03 03:56:55;;;;;;;11.8;7.05;;;;;;;-2.32;74.50293;96053.59;;;;
2020/01/03 03:57:55;;;;;;;11.8;7.05;;;;;;;-2.32;74.50293;96053.59;;;;
2020/01/03 03:58:56;;;;;;;11.8;7.05;;;;;;;-2.32;74.50293;96053.59;;;;
2020/01/03 03:59:58;;;;;;;11.8;7.05;;;;;;;-2.32;74.50293;96053.59;;;;
2020/01/03 04:01:00;;;;;;;11.8;7.05;;;;;;;-2.32;74.50293;96053.59;;;;
2020/01/03 04:02:00;;;;;;;11.8;7.05;;;;;;;-2.32;74.50293;96053.59;;;;
2020/01/03 04:03:03;;;;;;;14.1;7.95;;;;;;;-1.67;74.64941;96058.47;;;;
2020/01/03 04:04:03;;;;;;;14.1;7.95;;;;;;;-1.67;74.64941;96058.47;;;;
2020/01/03 04:05:04;;;;;;;14.1;7.95;;;;;;;-1.67;74.64941;96058.47;;;;
2020/01/03 04:06:04;;;;;;;14.1;7.95;;;;;;;-1.67;74.64941;96058.47;;;;
2020/01/03 04:07:05;;;;;;;14.1;7.95;;;;;;;-1.67;74.64941;96058.47;;;;
2020/01/03 04:08:06;;;;;;;14.1;7.95;;;;;;;-1.67;74.64941;96058.47;;;;
2020/01/03 04:09:06;;;;;;;14.1;7.95;;;;;;;-1.67;74.64941;96058.47;;;;
2020/01/03 04:10:06;;;;;;;14.1;7.95;;;;;;;-1.67;74.64941;96058.47;;;;
2020/01/03 04:11:07;;;;;;;14.1;7.95;;;;;;;-1.67;74.64941;96058.47;;;;
2020/01/03 04:12:07;;;;;;;14.1;7.95;;;;;;;-1.67;74.64941;96058.47;;;;
2020/01/03 04:13:09;;;;;;;14.1;7.95;;;;;;;-1.67;74.64941;96058.47;;;;
2020/01/03 04:14:09;;;;;;;10.55;6.799999;;;;;;;-1.52;75.05078;96053.55;;;;
2020/01/03 04:15:10;;;;;;;10.55;6.799999;;;;;;;-1.52;75.05078;96053.55;;;;
2020/01/03 04:16:10;;;;;;;10.55;6.799999;;;;;;;-1.52;75.05078;96053.55;;;;
2020/01/03 04:17:12;;;;;;;10.55;6.799999;;;;;;;-1.52;75.05078;96053.55;;;;
2020/01/03 04:18:13;;;;;;;10.55;6.799999;;;;;;;-1.52;75.05078;96053.55;;;;
2020/01/03 04:19:13;;;;;;;10.55;6.799999;;;;;;;-1.52;75.05078;96053.55;;;;
2020/01/03 04:20:14;;;;;;;10.55;6.799999;;;;;;;-1.52;75.05078;96053.55;;;;
2020/01/03 04:21:14;;;;;;;10.55;6.799999;;;;;;;-1.52;75.05078;96053.55;;;;
2020/01/03 04:22:15;;;;;;;10.55;6.799999;;;;;;;-1.52;75.05078;96053.55;;;;
2020/01/03 04:23:15;;;;;;;10.55;6.799999;;;;;;;-1.52;75.05078;96053.55;;;;
2020/01/03 04:24:16;;;;;;;10.9;7;;;;;;;-1.37;75.3584;96050.38;;;;
2020/01/03 04:25:17;;;;;;;10.9;7;;;;;;;-1.37;75.3584;96050.38;;;;
2020/01/03 04:26:17;;;;;;;10.9;7;;;;;;;-1.37;75.3584;96050.38;;;;
2020/01/03 04:27:22;;;;;;;10.9;7;;;;;;;-1.37;75.3584;96050.38;;;;
2020/01/03 04:28:23;;;;;;;10.9;7;;;;;;;-1.37;75.3584;96050.38;;;;
2020/01/03 04:29:23;;;;;;;10.9;7;;;;;;;-1.37;75.3584;96050.38;;;;
2020/01/03 04:30:24;;;;;;;10.9;7;;;;;;;-1.37;75.3584;96050.38;;;;
2020/01/03 04:31:24;;;;;;;10.9;7;;;;;;;-1.37;75.3584;96050.38;;;;
2020/01/03 04:32:25;;;;;;;10.9;7;;;;;;;-1.37;75.3584;96050.38;;;;
2020/01/03 04:33:25;;;;;;;10.9;7;;;;;;;-1.37;75.3584;96050.38;;;;
2020/01/03 04:34:26;;;;;;;10.9;7;;;;;;;-1.37;75.3584;96050.38;;;;
2020/01/03 04:35:26;;;;;;;10.6;6.9;;;;;;;-1.35;75.61133;96047.49;;;;
2020/01/03 04:36:27;;;;;;;10.6;6.9;;;;;;;-1.35;75.61133;96047.49;;;;
2020/01/03 04:37:27;;;;;;;10.6;6.9;;;;;;;-1.35;75.61133;96047.49;;;;
2020/01/03 04:38:28;;;;;;;10.6;6.9;;;;;;;-1.35;75.61133;96047.49;;;;
2020/01/03 04:39:28;;;;;;;10.6;6.9;;;;;;;-1.35;75.61133;96047.49;;;;
2020/01/03 04:40:29;;;;;;;10.6;6.9;;;;;;;-1.35;75.61133;96047.49;;;;
2020/01/03 04:41:29;;;;;;;10.6;6.9;;;;;;;-1.35;75.61133;96047.49;;;;
2020/01/03 04:42:29;;;;;;;10.6;6.9;;;;;;;-1.35;75.61133;96047.49;;;;
2020/01/03 04:43:30;;;;;;;10.6;6.9;;;;;;;-1.35;75.61133;96047.49;;;;
2020/01/03 04:44:30;;;;;;;10.6;6.9;;;;;;;-1.35;75.61133;96047.49;;;;
2020/01/03 04:45:31;;;;;;;10.05;7.05;;;;;;;-1.24;75.94336;96047.31;;;;
2020/01/03 04:46:31;;;;;;;10.05;7.05;;;;;;;-1.24;75.94336;96047.31;;;;
2020/01/03 04:47:32;;;;;;;10.05;7.05;;;;;;;-1.24;75.94336;96047.31;;;;
2020/01/03 04:48:32;;;;;;;10.05;7.05;;;;;;;-1.24;75.94336;96047.31;;;;
2020/01/03 04:49:33;;;;;;;10.05;7.05;;;;;;;-1.24;75.94336;96047.31;;;;
2020/01/03 04:50:33;;;;;;;10.05;7.05;;;;;;;-1.24;75.94336;96047.31;;;;
2020/01/03 04:51:34;;;;;;;10.05;7.05;;;;;;;-1.24;75.94336;96047.31;;;;
2020/01/03 04:52:35;;;;;;;10.05;7.05;;;;;;;-1.24;75.94336;96047.31;;;;
2020/01/03 04:53:35;;;;;;;10.05;7.05;;;;;;;-1.24;75.94336;96047.31;;;;
2020/01/03 04:54:36;;;;;;;10.05;7.05;;;;;;;-1.24;75.94336;96047.31;;;;
2020/01/03 04:55:36;;;;;;;10.05;7.05;;;;;;;-1.24;75.94336;96047.31;;;;
2020/01/03 04:56:37;;;;;;;10.95;6.500001;;;;;;;-1.23;76.06836;96036.24;;;;
2020/01/03 04:57:37;;;;;;;10.95;6.500001;;;;;;;-1.23;76.06836;96036.24;;;;
2020/01/03 04:58:37;;;;;;;10.95;6.500001;;;;;;;-1.23;76.06836;96036.24;;;;
2020/01/03 04:59:38;;;;;;;10.95;6.500001;;;;;;;-1.23;76.06836;96036.24;;;;
2020/01/03 05:00:39;;;;;;;10.95;6.500001;;;;;;;-1.23;76.06836;96036.24;;;;
2020/01/03 05:01:39;;;;;;;10.95;6.500001;;;;;;;-1.23;76.06836;96036.24;;;;
2020/01/03 05:02:39;;;;;;;10.95;6.500001;;;;;;;-1.23;76.06836;96036.24;;;;
2020/01/03 05:03:40;;;;;;;10.95;6.500001;;;;;;;-1.23;76.06836;96036.24;;;;
2020/01/03 05:04:40;;;;;;;10.95;6.500001;;;;;;;-1.23;76.06836;96036.24;;;;
2020/01/03 05:05:41;;;;;;;10.95;6.500001;;;;;;;-1.23;76.06836;96036.24;;;;
2020/01/03 05:06:41;;;;;;;11.5;7.099999;;;;;;;-1.23;76.44238;96039.31;;;;
2020/01/03 05:07:42;;;;;;;11.5;7.099999;;;;;;;-1.23;76.44238;96039.31;;;;
2020/01/03 05:08:42;;;;;;;11.5;7.099999;;;;;;;-1.23;76.44238;96039.31;;;;
2020/01/03 05:09:43;;;;;;;11.5;7.099999;;;;;;;-1.23;76.44238;96039.31;;;;
2020/01/03 05:10:43;;;;;;;11.5;7.099999;;;;;;;-1.23;76.44238;96039.31;;;;
2020/01/03 05:11:44;;;;;;;11.5;7.099999;;;;;;;-1.23;76.44238;96039.31;;;;
2020/01/03 05:12:44;;;;;;;11.5;7.099999;;;;;;;-1.23;76.44238;96039.31;;;;
2020/01/03 05:13:45;;;;;;;11.5;7.099999;;;;;;;-1.23;76.44238;96039.31;;;;
2020/01/03 05:14:45;;;;;;;11.5;7.099999;;;;;;;-1.23;76.44238;96039.31;;;;
2020/01/03 05:15:46;;;;;;;11.5;7.099999;;;;;;;-1.23;76.44238;96039.31;;;;
2020/01/03 05:16:46;;;;;;;11.5;7.099999;;;;;;;-1.23;76.44238;96039.31;;;;
2020/01/03 05:17:46;;;;;;;10.8;6.849999;;;;;;;-1.3;76.87793;96047.02;;;;
2020/01/03 05:18:47;;;;;;;10.8;6.849999;;;;;;;-1.3;76.87793;96047.02;;;;
2020/01/03 05:19:47;;;;;;;10.8;6.849999;;;;;;;-1.3;76.87793;96047.02;;;;
2020/01/03 05:20:48;;;;;;;10.8;6.849999;;;;;;;-1.3;76.87793;96047.02;;;;
2020/01/03 05:21:48;;;;;;;10.8;6.849999;;;;;;;-1.3;76.87793;96047.02;;;;
2020/01/03 05:22:49;;;;;;;10.8;6.849999;;;;;;;-1.3;76.87793;96047.02;;;;
2020/01/03 05:23:49;;;;;;;10.8;6.849999;;;;;;;-1.3;76.87793;96047.02;;;;
2020/01/03 05:24:50;;;;;;;10.8;6.849999;;;;;;;-1.3;76.87793;96047.02;;;;
2020/01/03 05:25:50;;;;;;;10.8;6.849999;;;;;;;-1.3;76.87793;96047.02;;;;
2020/01/03 05:26:50;;;;;;;10.8;6.849999;;;;;;;-1.3;76.87793;96047.02;;;;
2020/01/03 05:27:51;;;;;;;10.8;6.849999;;;;;;;-1.3;76.87793;96047.02;;;;
2020/01/03 05:28:51;;;;;;;12.9;7.25;;;;;;;-1.16;77.56934;96039.9;;;;
2020/01/03 05:29:52;;;;;;;12.9;7.25;;;;;;;-1.16;77.56934;96039.9;;;;
2020/01/03 05:30:52;;;;;;;12.9;7.25;;;;;;;-1.16;77.56934;96039.9;;;;
2020/01/03 05:31:53;;;;;;;12.9;7.25;;;;;;;-1.16;77.56934;96039.9;;;;
2020/01/03 05:32:53;;;;;;;12.9;7.25;;;;;;;-1.16;77.56934;96039.9;;;;
2020/01/03 05:33:54;;;;;;;12.9;7.25;;;;;;;-1.16;77.56934;96039.9;;;;
2020/01/03 05:34:54;;;;;;;12.9;7.25;;;;;;;-1.16;77.56934;96039.9;;;;
2020/01/03 05:35:55;;;;;;;12.9;7.25;;;;;;;-1.16;77.56934;96039.9;;;;
2020/01/03 05:36:55;;;;;;;12.9;7.25;;;;;;;-1.16;77.56934;96039.9;;;;
2020/01/03 05:37:55;;;;;;;12.9;7.25;;;;;;;-1.16;77.56934;96039.9;;;;
2020/01/03 05:38:56;;;;;;;10.3;6.45;;;;;;;-1.07;77.33496;96053.19;;;;
2020/01/03 05:39:56;;;;;;;10.3;6.45;;;;;;;-1.07;77.33496;96053.19;;;;
2020/01/03 05:40:57;;;;;;;10.3;6.45;;;;;;;-1.07;77.33496;96053.19;;;;
2020/01/03 05:42:00;;;;;;;10.3;6.45;;;;;;;-1.07;77.33496;96053.19;;;;
2020/01/03 05:43:01;;;;;;;10.3;6.45;;;;;;;-1.07;77.33496;96053.19;;;;
2020/01/03 05:44:02;;;;;;;10.3;6.45;;;;;;;-1.07;77.33496;96053.19;;;;
2020/01/03 05:45:06;;;;;;;10.3;6.45;;;;;;;-1.07;77.33496;96053.19;;;;
2020/01/03 05:46:57;;;;;;;10.3;6.45;;;;;;;-1.07;77.33496;96053.19;;;;
2020/01/03 05:53:11;;;;;;;9.049999;5.950001;;;;;;;-1.07;77.76367;96045.65;;;;
2020/01/03 05:54:12;;;;;;;9.049999;5.950001;;;;;;;-1.07;77.76367;96045.65;;;;
2020/01/03 05:55:12;;;;;;;9.049999;5.950001;;;;;;;-1.07;77.76367;96045.65;;;;
2020/01/03 05:56:12;;;;;;;9.049999;5.950001;;;;;;;-1.07;77.76367;96045.65;;;;
2020/01/03 05:57:13;;;;;;;9.049999;5.950001;;;;;;;-1.07;77.76367;96045.65;;;;
2020/01/03 05:58:13;;;;;;;9.049999;5.950001;;;;;;;-1.07;77.76367;96045.65;;;;
2020/01/03 05:59:14;;;;;;;9.049999;5.950001;;;;;;;-1.07;77.76367;96045.65;;;;
2020/01/03 06:00:14;;;;;;;9.900001;6.1;;;;;;;-1.11;77.86035;96060.17;;;;
2020/01/03 06:01:15;;;;;;;9.900001;6.1;;;;;;;-1.11;77.86035;96060.17;;;;